createdAt,value
2019-04-10T00:00:53.448Z,10.00
2019-04-10T00:03:31.967Z,10.00
2019-04-10T00:05:56.306Z,10.00
2019-04-10T00:08:26.565Z,9.90
2019-04-10T00:10:56.800Z,9.90
2019-04-10T00:13:27.610Z,9.90
2019-04-10T00:15:59.620Z,10.00
2019-04-10T00:18:30.037Z,10.00
2019-04-10T00:21:00.869Z,9.90
2019-04-10T00:23:33.159Z,9.90
2019-04-10T00:26:03.622Z,9.90
2019-04-10T00:28:35.896Z,9.90
2019-04-10T00:31:06.013Z,9.90
2019-04-10T00:33:36.735Z,9.90
2019-04-10T00:36:07.943Z,9.90
2019-04-10T00:38:38.060Z,9.80
2019-04-10T00:41:08.084Z,9.80
2019-04-10T00:43:39.946Z,9.80
2019-04-10T00:46:10.329Z,9.80
2019-04-10T00:48:41.789Z,9.80
2019-04-10T00:51:12.047Z,9.80
2019-04-10T00:53:42.138Z,9.80
2019-04-10T00:56:12.481Z,9.80
2019-04-10T00:58:43.629Z,9.80
2019-04-10T01:01:14.349Z,9.80
2019-04-10T01:03:46.674Z,9.80
2019-04-10T01:06:17.213Z,9.80
2019-04-10T01:08:47.287Z,9.80
2019-04-10T01:11:17.296Z,9.80
2019-04-10T01:13:47.497Z,9.90
2019-04-10T01:16:17.950Z,9.90
2019-04-10T01:18:48.036Z,9.80
2019-04-10T01:21:18.131Z,9.90
2019-04-10T01:23:49.080Z,9.80
2019-04-10T01:26:19.255Z,9.80
2019-04-10T01:28:51.249Z,9.80
2019-04-10T01:31:21.432Z,9.80
2019-04-10T01:33:52.753Z,9.80
2019-04-10T01:36:22.858Z,9.70
2019-04-10T01:38:53.771Z,9.70
2019-04-10T01:41:23.955Z,9.70
2019-04-10T01:43:55.288Z,9.80
2019-04-10T01:46:26.355Z,9.80
2019-04-10T01:48:57.521Z,9.80
2019-04-10T01:51:28.750Z,9.80
2019-04-10T01:53:58.758Z,9.70
2019-04-10T01:56:33.155Z,9.70
2019-04-10T01:59:01.375Z,9.70
2019-04-10T02:01:36.769Z,9.60
2019-04-10T02:04:06.847Z,9.50
2019-04-10T02:06:37.810Z,9.50
2019-04-10T02:09:10.942Z,9.60
2019-04-10T02:11:41.881Z,9.50
2019-04-10T02:14:12.134Z,9.50
2019-04-10T02:16:43.197Z,9.50
2019-04-10T02:19:14.277Z,9.50
2019-04-10T02:21:45.497Z,9.50
2019-04-10T02:24:16.629Z,9.60
2019-04-10T02:26:46.770Z,9.50
2019-04-10T02:29:17.655Z,9.50
2019-04-10T02:31:50.545Z,9.50
2019-04-10T02:34:21.230Z,9.50
2019-04-10T02:36:52.850Z,9.40
2019-04-10T02:39:32.386Z,9.40
2019-04-10T02:41:56.275Z,9.40
2019-04-10T02:44:28.402Z,9.40
2019-04-10T02:46:59.689Z,9.40
2019-04-10T02:49:30.067Z,9.40
2019-04-10T02:52:00.082Z,9.30
2019-04-10T02:54:30.187Z,9.30
2019-04-10T02:57:01.024Z,9.30
2019-04-10T02:59:31.281Z,9.30
2019-04-10T03:02:02.340Z,9.30
2019-04-10T03:04:35.073Z,9.20
2019-04-10T03:07:05.398Z,9.20
2019-04-10T03:09:49.713Z,9.30
2019-04-10T03:12:08.535Z,9.30
2019-04-10T03:14:42.938Z,9.30
2019-04-10T03:17:12.231Z,9.20
2019-04-10T03:19:43.545Z,9.20
2019-04-10T03:22:13.642Z,9.20
2019-04-10T03:24:44.393Z,9.10
2019-04-10T03:27:14.585Z,9.10
2019-04-10T03:29:45.028Z,9.00
2019-04-10T03:32:40.667Z,9.10
2019-04-10T03:35:16.772Z,9.10
2019-04-10T03:37:48.642Z,9.00
2019-04-10T03:40:19.552Z,9.00
2019-04-10T03:42:49.786Z,9.00
2019-04-10T03:45:20.258Z,9.00
2019-04-10T03:47:51.416Z,9.00
2019-04-10T03:50:23.662Z,9.00
2019-04-10T03:52:53.841Z,9.00
2019-04-10T03:55:25.063Z,8.90
2019-04-10T03:57:55.307Z,9.00
2019-04-10T04:00:27.805Z,8.90
2019-04-10T04:02:58.229Z,8.90
2019-04-10T04:05:28.806Z,8.80
2019-04-10T04:07:59.314Z,8.80
2019-04-10T04:10:29.449Z,8.80
2019-04-10T04:13:00.211Z,8.70
2019-04-10T04:15:30.649Z,8.70
2019-04-10T04:18:00.636Z,8.70
2019-04-10T04:20:30.773Z,8.60
2019-04-10T04:23:01.397Z,8.60
2019-04-10T04:25:32.496Z,8.60
2019-04-10T04:28:04.634Z,8.60
2019-04-10T04:30:36.021Z,8.60
2019-04-10T04:33:07.238Z,8.60
2019-04-10T04:35:37.257Z,8.60
2019-04-10T04:38:07.321Z,8.60
2019-04-10T04:40:37.763Z,8.60
2019-04-10T04:43:08.910Z,8.60
2019-04-10T04:45:38.997Z,8.60
2019-04-10T04:48:09.844Z,8.50
2019-04-10T04:50:40.083Z,8.50
2019-04-10T04:53:10.744Z,8.50
2019-04-10T04:55:40.861Z,8.40
2019-04-10T04:58:11.777Z,8.40
2019-04-10T05:00:42.925Z,8.40
2019-04-10T05:03:13.317Z,8.40
2019-04-10T05:05:43.392Z,8.40
2019-04-10T05:08:13.529Z,8.50
2019-04-10T05:10:43.522Z,8.50
2019-04-10T05:13:13.885Z,8.50
2019-04-10T05:15:45.155Z,8.40
2019-04-10T05:18:15.203Z,8.40
2019-04-10T05:20:49.976Z,8.40
2019-04-10T05:23:18.049Z,8.30
2019-04-10T05:25:48.178Z,8.30
2019-04-10T05:28:19.001Z,8.40
2019-04-10T05:30:50.499Z,8.40
2019-04-10T05:33:20.744Z,8.40
2019-04-10T05:35:52.665Z,8.40
2019-04-10T05:38:24.983Z,8.50
2019-04-10T05:40:55.257Z,8.50
2019-04-10T05:43:26.065Z,8.50
2019-04-10T05:45:57.171Z,8.50
2019-04-10T05:48:28.634Z,8.50
2019-04-10T05:51:03.002Z,8.40
2019-04-10T05:53:30.377Z,8.30
2019-04-10T05:56:01.750Z,8.40
2019-04-10T05:58:31.980Z,8.40
2019-04-10T06:01:05.353Z,8.50
2019-04-10T06:03:36.567Z,8.50
2019-04-10T06:06:06.775Z,8.50
2019-04-10T06:08:37.312Z,8.50
2019-04-10T06:11:08.613Z,8.60
2019-04-10T06:13:40.904Z,8.70
2019-04-10T06:16:11.835Z,8.70
2019-04-10T06:18:43.062Z,8.70
2019-04-10T06:21:14.765Z,8.60
2019-04-10T06:23:45.009Z,8.60
2019-04-10T06:26:16.438Z,8.60
2019-04-10T06:28:47.001Z,8.60
2019-04-10T06:31:17.085Z,8.60
2019-04-10T06:33:47.138Z,8.60
2019-04-10T06:36:17.539Z,8.70
2019-04-10T06:38:47.774Z,8.90
2019-04-10T06:41:19.218Z,8.90
2019-04-10T06:43:49.794Z,8.90
2019-04-10T06:46:20.171Z,9.00
2019-04-10T06:48:50.317Z,9.00
2019-04-10T06:51:21.684Z,9.20
2019-04-10T06:54:01.802Z,9.20
2019-04-10T06:56:23.687Z,9.20
2019-04-10T06:58:54.079Z,9.30
2019-04-10T07:01:26.107Z,9.30
2019-04-10T07:04:02.126Z,9.10
2019-04-10T07:06:44.653Z,9.10
2019-04-10T07:08:59.319Z,9.20
2019-04-10T07:11:32.166Z,9.30
2019-04-10T07:14:01.774Z,9.60
2019-04-10T07:16:34.025Z,9.70
2019-04-10T07:19:06.946Z,9.90
2019-04-10T07:21:37.097Z,9.80
2019-04-10T07:24:11.004Z,9.60
2019-04-10T07:26:43.687Z,9.70
2019-04-10T07:29:16.410Z,9.70
2019-04-10T07:31:44.678Z,9.70
2019-04-10T07:34:15.100Z,9.80
2019-04-10T07:36:46.597Z,9.80
2019-04-10T07:39:17.332Z,10.00
2019-04-10T07:41:47.516Z,10.20
2019-04-10T07:44:18.598Z,10.30
2019-04-10T07:46:52.927Z,10.40
2019-04-10T07:49:27.457Z,10.80
2019-04-10T07:51:54.930Z,11.00
2019-04-10T07:54:24.945Z,10.90
2019-04-10T07:56:55.736Z,10.90
2019-04-10T07:59:25.744Z,11.00
2019-04-10T08:01:55.976Z,10.90
2019-04-10T08:04:26.856Z,10.90
2019-04-10T08:06:57.044Z,10.80
2019-04-10T08:09:27.390Z,10.60
2019-04-10T08:11:59.858Z,10.70
2019-04-10T08:14:31.464Z,11.00
2019-04-10T08:17:01.693Z,11.00
2019-04-10T08:19:32.804Z,10.80
2019-04-10T08:22:03.670Z,10.90
2019-04-10T08:24:34.429Z,11.00
2019-04-10T08:27:05.347Z,11.20
2019-04-10T08:29:36.444Z,11.20
2019-04-10T08:32:07.540Z,11.20
2019-04-10T08:34:37.898Z,11.20
2019-04-10T08:37:08.150Z,11.30
2019-04-10T08:39:42.996Z,11.30
2019-04-10T08:42:10.663Z,11.50
2019-04-10T08:44:40.769Z,11.40
2019-04-10T08:47:11.105Z,11.60
2019-04-10T08:49:41.217Z,11.80
2019-04-10T08:52:12.249Z,12.20
2019-04-10T08:54:43.091Z,12.60
2019-04-10T08:57:13.719Z,13.00
2019-04-10T08:59:44.549Z,13.70
2019-04-10T09:02:15.898Z,14.10
2019-04-10T09:04:47.527Z,14.50
2019-04-10T09:07:17.902Z,14.70
2019-04-10T09:09:48.039Z,14.70
2019-04-10T09:12:18.106Z,14.60
2019-04-10T09:14:48.109Z,14.50
2019-04-10T09:17:18.152Z,14.60
2019-04-10T09:19:48.227Z,14.40
2019-04-10T09:22:18.268Z,14.20
2019-04-10T09:24:48.873Z,14.20
2019-04-10T09:27:19.281Z,13.90
2019-04-10T09:29:49.658Z,13.60
2019-04-10T09:32:20.130Z,13.60
2019-04-10T09:34:50.284Z,13.40
2019-04-10T09:37:20.340Z,13.20
2019-04-10T09:39:51.959Z,13.30
2019-04-10T09:42:23.546Z,13.30
2019-04-10T09:44:54.841Z,13.30
2019-04-10T09:47:24.989Z,13.70
2019-04-10T09:49:55.570Z,13.80
2019-04-10T09:52:25.854Z,13.70
2019-04-10T09:54:56.028Z,13.70
2019-04-10T09:57:26.658Z,14.10
2019-04-10T09:59:57.998Z,15.00
2019-04-10T10:02:28.093Z,16.10
2019-04-10T10:04:58.191Z,16.90
2019-04-10T10:07:28.452Z,17.30
2019-04-10T10:10:00.766Z,17.60
2019-04-10T10:12:30.622Z,18.60
2019-04-10T10:15:00.718Z,19.40
2019-04-10T10:17:30.888Z,19.50
2019-04-10T10:20:01.797Z,18.80
2019-04-10T10:22:32.125Z,17.60
2019-04-10T10:25:02.922Z,17.10
2019-04-10T10:27:34.304Z,16.10
2019-04-10T10:30:05.246Z,15.80
2019-04-10T10:32:35.249Z,16.10
2019-04-10T10:35:07.160Z,16.60
2019-04-10T10:37:38.709Z,17.10
2019-04-10T10:40:10.165Z,17.30
2019-04-10T10:42:41.422Z,17.20
2019-04-10T10:45:12.447Z,16.90
2019-04-10T10:47:42.589Z,16.80
2019-04-10T10:50:13.108Z,16.40
2019-04-10T10:52:43.835Z,16.30
2019-04-10T10:55:14.055Z,16.10
2019-04-10T10:57:44.275Z,16.00
2019-04-10T11:00:29.434Z,16.00
2019-04-10T11:03:00.211Z,16.00
2019-04-10T11:05:32.001Z,16.00
2019-04-10T11:08:03.155Z,16.20
2019-04-10T11:10:33.931Z,16.60
2019-04-10T11:13:03.948Z,16.80
2019-04-10T11:15:34.138Z,17.00
2019-04-10T11:18:06.308Z,16.90
2019-04-10T11:20:36.566Z,16.70
2019-04-10T11:23:06.625Z,16.60
2019-04-10T11:25:37.750Z,16.20
2019-04-10T11:28:08.041Z,16.20
2019-04-10T11:30:38.350Z,16.40
2019-04-10T11:33:08.579Z,16.40
2019-04-10T11:35:39.652Z,16.30
2019-04-10T11:38:10.951Z,16.40
2019-04-10T11:40:41.424Z,16.30
2019-04-10T11:43:12.472Z,16.40
2019-04-10T11:45:51.266Z,16.20
2019-04-10T11:48:16.354Z,16.30
2019-04-10T11:50:48.424Z,16.40
2019-04-10T11:53:19.109Z,16.40
2019-04-10T11:55:52.989Z,16.20
2019-04-10T11:58:24.378Z,16.10
2019-04-10T12:00:56.439Z,16.10
2019-04-10T12:03:27.017Z,16.20
2019-04-10T12:05:59.574Z,16.20
2019-04-10T12:08:50.377Z,16.40
2019-04-10T12:13:33.173Z,16.30
2019-04-10T12:16:03.294Z,16.40
2019-04-10T12:18:33.322Z,16.50
2019-04-10T12:21:03.506Z,16.50
2019-04-10T12:23:34.654Z,16.30
2019-04-10T12:26:05.019Z,16.30
2019-04-10T12:28:36.099Z,16.10
2019-04-10T12:31:06.554Z,16.20
2019-04-10T12:33:36.579Z,16.30
2019-04-10T12:36:10.558Z,16.60
2019-04-10T12:38:41.565Z,16.80
2019-04-10T12:41:11.965Z,16.80
2019-04-10T12:43:43.261Z,16.60
2019-04-10T12:46:13.326Z,16.70
2019-04-10T12:48:43.863Z,16.70
2019-04-10T12:51:13.990Z,16.60
2019-04-10T12:53:44.037Z,16.50
2019-04-10T12:56:14.174Z,16.30
2019-04-10T12:58:44.694Z,16.10
2019-04-10T13:01:16.322Z,16.20
2019-04-10T13:03:47.353Z,16.10
2019-04-10T13:06:17.971Z,16.00
2019-04-10T13:08:59.148Z,15.80
2019-04-10T13:11:20.515Z,15.90
2019-04-10T13:13:51.330Z,15.90
2019-04-10T13:16:21.871Z,15.80
2019-04-10T13:18:52.356Z,15.90
2019-04-10T13:21:22.606Z,16.00
2019-04-10T13:23:53.028Z,16.00
2019-04-10T13:26:23.937Z,16.00
2019-04-10T13:28:54.167Z,16.30
2019-04-10T13:31:24.238Z,16.50
2019-04-10T13:33:55.073Z,16.30
2019-04-10T13:36:25.255Z,16.40
2019-04-10T13:38:55.263Z,16.40
2019-04-10T13:41:26.152Z,16.60
2019-04-10T13:43:56.279Z,16.70
2019-04-10T13:46:26.848Z,16.90
2019-04-10T13:48:57.641Z,16.90
2019-04-10T13:51:27.783Z,16.70
2019-04-10T13:53:58.524Z,16.40
2019-04-10T13:56:29.390Z,16.40
2019-04-10T13:59:00.344Z,16.20
2019-04-10T14:01:33.546Z,16.20
2019-04-10T14:04:04.929Z,16.30
2019-04-10T14:06:35.999Z,16.30
2019-04-10T14:09:28.864Z,16.40
2019-04-10T14:11:47.351Z,16.40
2019-04-10T14:14:18.286Z,16.60
2019-04-10T14:16:48.872Z,16.60
2019-04-10T14:19:19.072Z,16.50
2019-04-10T14:21:49.509Z,16.50
2019-04-10T14:24:20.011Z,16.70
2019-04-10T14:27:10.302Z,16.70
2019-04-10T14:29:40.776Z,16.60
2019-04-10T14:32:15.359Z,16.50
2019-04-10T14:34:45.484Z,16.60
2019-04-10T14:37:16.834Z,16.30
2019-04-10T14:39:48.087Z,16.30
2019-04-10T14:42:18.330Z,16.40
2019-04-10T14:44:48.679Z,16.30
2019-04-10T14:47:20.312Z,16.10
2019-04-10T14:49:52.634Z,16.00
2019-04-10T14:52:23.277Z,16.10
2019-04-10T14:54:54.401Z,16.20
2019-04-10T14:57:26.601Z,16.00
2019-04-10T14:59:57.897Z,15.80
2019-04-10T15:02:28.095Z,15.60
2019-04-10T15:04:58.137Z,15.50
2019-04-10T15:07:28.970Z,15.40
2019-04-10T15:10:00.094Z,15.50
2019-04-10T15:12:30.263Z,15.60
2019-04-10T15:15:00.339Z,15.40
2019-04-10T15:17:30.830Z,15.40
2019-04-10T15:20:01.126Z,15.50
2019-04-10T15:22:33.569Z,15.50
2019-04-10T15:25:05.391Z,15.50
2019-04-10T15:27:35.614Z,15.30
2019-04-10T15:30:06.228Z,15.20
2019-04-10T15:32:36.325Z,15.10
2019-04-10T15:35:06.600Z,15.10
2019-04-10T15:37:37.445Z,15.10
2019-04-10T15:40:17.690Z,15.10
2019-04-10T15:42:40.589Z,15.10
2019-04-10T15:45:10.838Z,14.90
2019-04-10T15:47:49.261Z,14.90
2019-04-10T15:50:13.698Z,14.70
2019-04-10T15:52:45.086Z,14.70
2019-04-10T15:55:15.530Z,14.70
2019-04-10T15:57:53.029Z,14.80
2019-04-10T16:00:17.696Z,14.80
2019-04-10T16:02:48.912Z,14.60
2019-04-10T16:05:19.535Z,14.30
2019-04-10T16:08:09.953Z,14.10
2019-04-10T16:10:53.004Z,14.10
2019-04-10T16:13:32.287Z,14.10
2019-04-10T16:16:20.688Z,13.90
2019-04-10T16:18:55.367Z,13.80
2019-04-10T16:21:26.805Z,13.70
2019-04-10T16:24:03.243Z,13.60
2019-04-10T16:26:33.595Z,13.50
2019-04-10T16:29:04.050Z,13.50
2019-04-10T16:31:35.481Z,13.50
2019-04-10T16:34:05.835Z,13.50
2019-04-10T16:36:36.019Z,13.50
2019-04-10T16:39:09.146Z,13.50
2019-04-10T16:41:39.579Z,13.50
2019-04-10T16:44:10.928Z,13.40
2019-04-10T16:46:42.502Z,13.30
2019-04-10T16:49:12.786Z,13.20
2019-04-10T16:51:42.926Z,13.10
2019-04-10T16:54:13.062Z,13.10
2019-04-10T16:56:43.194Z,13.00
2019-04-10T16:59:14.214Z,12.90
2019-04-10T17:01:44.882Z,12.90
2019-04-10T17:04:18.905Z,12.80
2019-04-10T17:06:50.474Z,12.80
2019-04-10T17:09:23.422Z,12.80
2019-04-10T17:11:53.807Z,12.80
2019-04-10T17:14:24.118Z,12.80
2019-04-10T17:16:54.299Z,12.80
2019-04-10T17:19:24.652Z,12.80
2019-04-10T17:21:54.889Z,12.70
2019-04-10T17:24:25.127Z,12.60
2019-04-10T17:26:55.821Z,12.60
2019-04-10T17:29:27.143Z,12.50
2019-04-10T17:31:57.576Z,12.50
2019-04-10T17:34:27.823Z,12.40
2019-04-10T17:36:59.085Z,12.40
2019-04-10T17:39:29.348Z,12.20
2019-04-10T17:42:00.002Z,12.20
2019-04-10T17:44:30.308Z,12.00
2019-04-10T17:47:01.702Z,12.00
2019-04-10T17:49:32.136Z,11.90
2019-04-10T17:52:03.969Z,11.80
2019-04-10T17:54:34.605Z,11.80
2019-04-10T17:57:06.531Z,11.70
2019-04-10T17:59:36.694Z,11.60
2019-04-10T18:02:11.672Z,11.50
2019-04-10T18:04:42.178Z,11.40
2019-04-10T18:07:12.581Z,11.30
2019-04-10T18:09:43.058Z,11.30
2019-04-10T18:12:14.247Z,11.20
2019-04-10T18:14:44.475Z,11.10
2019-04-10T18:17:14.594Z,11.00
2019-04-10T18:19:44.778Z,10.90
2019-04-10T18:22:14.883Z,10.80
2019-04-10T18:24:46.123Z,10.80
2019-04-10T18:27:16.382Z,10.70
2019-04-10T18:29:49.632Z,10.70
2019-04-10T18:32:19.780Z,10.70
2019-04-10T18:34:50.061Z,10.60
2019-04-10T18:37:23.733Z,10.50
2019-04-10T18:39:52.018Z,10.50
2019-04-10T18:42:24.120Z,10.40
2019-04-10T18:44:54.080Z,10.30
2019-04-10T18:47:25.000Z,10.30
2019-04-10T18:49:55.955Z,10.20
2019-04-10T18:52:26.206Z,10.10
2019-04-10T18:54:58.422Z,10.10
2019-04-10T18:57:31.284Z,10.10
2019-04-10T19:00:08.235Z,10.10
2019-04-10T19:02:49.664Z,10.00
2019-04-10T19:05:25.668Z,9.90
2019-04-10T19:07:56.691Z,9.90
2019-04-10T19:10:26.911Z,9.80
2019-04-10T19:12:59.506Z,9.70
2019-04-10T19:15:31.118Z,9.60
2019-04-10T19:18:01.652Z,9.60
2019-04-10T19:20:31.743Z,9.60
2019-04-10T19:23:01.856Z,9.50
2019-04-10T19:25:33.110Z,9.60
2019-04-10T19:28:04.470Z,9.50
2019-04-10T19:30:41.470Z,9.50
2019-04-10T19:33:12.144Z,9.40
2019-04-10T19:35:43.423Z,9.30
2019-04-10T19:38:15.000Z,9.20
2019-04-10T19:40:45.831Z,9.20
2019-04-10T19:43:16.175Z,9.10
2019-04-10T19:45:46.239Z,9.10
2019-04-10T19:48:17.252Z,9.10
2019-04-10T19:50:47.781Z,9.10
2019-04-10T19:53:19.312Z,9.00
2019-04-10T19:55:49.438Z,9.00
2019-04-10T19:58:19.678Z,9.00
2019-04-10T20:00:49.959Z,8.90
2019-04-10T20:03:20.045Z,8.80
2019-04-10T20:05:51.236Z,8.80
2019-04-10T20:08:21.721Z,8.80
2019-04-10T20:10:51.982Z,8.80
2019-04-10T20:13:22.734Z,8.70
2019-04-10T20:15:53.085Z,8.70
2019-04-10T20:18:24.421Z,8.70
2019-04-10T20:20:55.477Z,8.60
2019-04-10T20:23:25.841Z,8.50
2019-04-10T20:25:56.941Z,8.50
2019-04-10T20:28:27.295Z,8.50
2019-04-10T20:30:58.096Z,8.50
2019-04-10T20:33:30.479Z,8.50
2019-04-10T20:36:00.977Z,8.50
2019-04-10T20:38:33.419Z,8.50
2019-04-10T20:41:04.661Z,8.40
2019-04-10T20:43:37.249Z,8.30
2019-04-10T20:46:07.596Z,8.30
2019-04-10T20:48:38.858Z,8.20
2019-04-10T20:51:09.267Z,8.20
2019-04-10T20:53:40.178Z,8.10
2019-04-10T20:56:10.572Z,8.10
2019-04-10T20:58:40.799Z,8.10
2019-04-10T21:01:12.391Z,8.10
2019-04-10T21:03:42.626Z,8.00
2019-04-10T21:06:13.358Z,8.00
2019-04-10T21:08:44.560Z,8.00
2019-04-10T21:11:15.842Z,7.90
2019-04-10T21:13:47.001Z,7.90
2019-04-10T21:16:18.026Z,7.90
2019-04-10T21:18:48.268Z,7.90
2019-04-10T21:21:18.674Z,7.80
2019-04-10T21:23:48.843Z,7.70
2019-04-10T21:26:19.849Z,7.70
2019-04-10T21:28:50.026Z,7.60
2019-04-10T21:31:44.931Z,7.70
2019-04-10T21:34:23.181Z,7.70
2019-04-10T21:36:53.412Z,7.60
2019-04-10T21:39:23.551Z,7.60
2019-04-10T21:41:53.613Z,7.60
2019-04-10T21:44:24.662Z,7.50
2019-04-10T21:46:55.070Z,7.50
2019-04-10T21:49:26.176Z,7.40
2019-04-10T21:51:56.382Z,7.40
2019-04-10T21:54:27.041Z,7.40
2019-04-10T21:56:57.665Z,7.30
2019-04-10T21:59:28.906Z,7.20
2019-04-10T22:01:59.393Z,7.00
2019-04-10T22:04:30.767Z,7.10
2019-04-10T22:07:20.305Z,7.00
2019-04-10T22:10:03.540Z,6.90
2019-04-10T22:12:39.603Z,6.80
2019-04-10T22:15:13.096Z,6.80
2019-04-10T22:17:44.559Z,6.70
2019-04-10T22:20:15.225Z,6.60
2019-04-10T22:22:45.425Z,6.50
2019-04-10T22:25:15.801Z,6.50
2019-04-10T22:27:47.769Z,6.50
2019-04-10T22:30:18.966Z,6.60
2019-04-10T22:32:49.317Z,6.60
2019-04-10T22:35:19.530Z,6.50
2019-04-10T22:37:50.343Z,6.50
2019-04-10T22:40:21.638Z,6.40
2019-04-10T22:42:51.809Z,6.50
2019-04-10T22:45:29.053Z,6.40
2019-04-10T22:48:00.697Z,6.40
2019-04-10T22:50:31.155Z,6.30
2019-04-10T22:53:01.520Z,6.30
2019-04-10T22:55:32.021Z,6.30
2019-04-10T22:58:02.571Z,6.30
2019-04-10T23:00:32.958Z,6.30
2019-04-10T23:03:03.372Z,6.30
2019-04-10T23:05:34.792Z,6.20
2019-04-10T23:08:04.878Z,6.30
2019-04-10T23:10:35.303Z,6.20
2019-04-10T23:13:07.116Z,6.20
2019-04-10T23:15:37.727Z,6.10
2019-04-10T23:18:07.883Z,6.00
2019-04-10T23:20:37.914Z,6.00
2019-04-10T23:23:08.565Z,6.00
2019-04-10T23:25:38.645Z,5.90
2019-04-10T23:28:09.509Z,5.80
2019-04-10T23:30:39.642Z,5.80
2019-04-10T23:33:10.028Z,5.80
2019-04-10T23:35:41.225Z,5.80
2019-04-10T23:38:11.427Z,5.80
2019-04-10T23:40:41.530Z,5.90
2019-04-10T23:43:15.443Z,5.80
2019-04-10T23:45:44.023Z,5.70
2019-04-10T23:48:14.915Z,5.60
2019-04-10T23:50:46.164Z,5.60
2019-04-10T23:53:16.257Z,5.60
2019-04-10T23:55:46.404Z,5.60
2019-04-10T23:58:16.445Z,5.70
